• Join FlightAware (Why Join?)
  • Login
  • US Flag 
09:46AM EDT


 

Airport Tracker/Info


-or-


 

Live Flight TrackerFlight Track Log ✈ N897CA ✈ 06-Jul-2013 ✈ KRYY - KMTH

Flight Track Log - Related Links

Times and Time Zones

All times are in EDT time to prevent confusion due to time zone crossing. See the N897CA flight status page for this flight to view local times or setup timezone preferences in your user account.

Time Position Orientation Groundspeed Altitude Reporting Facility
EDT Latitude Longitude Course Direction KTS MPH feet Rate Location/Type
02:30PM 33.9333 -84.6000 121° Southeast 145 167 4,900  Level Atlanta TRACON
02:31PM 33.9000 -84.5667 140° Southeast 142 163 6,000 540 Climbing Atlanta TRACON
02:32PM 33.8667 -84.5333 140° Southeast 182 209 6,000  Level Atlanta TRACON
02:33PM 33.8167 -84.5000 151° Southeast 191 220 6,000  Level Atlanta TRACON
02:34PM 33.7667 -84.4833 165° South 190 219 6,000  Level Atlanta TRACON
02:35PM 33.5994 -84.4231 164° South  Level Estimated
02:35PM 33.7167 -84.4833 180° South 191 220 6,000  Level Atlanta TRACON
02:36PM 33.6500 -84.4833 180° South 189 217 6,000  Level Atlanta TRACON
02:37PM 33.6000 -84.4667 164° South 198 228 6,000  Level Atlanta TRACON
02:38PM 33.5500 -84.4667 180° South 187 215 6,000  Level Atlanta TRACON
02:39PM 33.5167 -84.4667 180° South 188 216 6,000  Level Atlanta TRACON
02:40PM 33.4667 -84.4667 180° South 196 226 6,000 720 Level Atlanta TRACON
02:41PM 33.4000 -84.4667 180° South 179 206 7,500 1,440 Climbing Atlanta TRACON
02:42PM 33.3803 -84.4444 137° Southeast 165 190 8,500 1,440 Climbing Atlanta Center
02:43PM 33.3386 -84.4217 155° Southeast 165 190 10,000 1,200 Climbing Atlanta Center
02:44PM 33.2969 -84.3967 153° Southeast 165 190 11,000 480 Climbing Atlanta Center
02:45PM 33.2428 -84.3642 153° Southeast 196 226 11,000  Level Atlanta Center
02:46PM 33.1803 -84.3342 158° South 232 267 11,000  Level Atlanta Center
02:47PM 33.1114 -84.3067 162° South 242 278 11,000  Level Atlanta Center
02:48PM 33.0467 -84.2767 159° South 248 285 11,000  Level Atlanta Center
02:49PM 32.9864 -84.2494 159° South 248 285 11,000  Level Atlanta Center
02:50PM 32.9236 -84.2219 160° South 243 280 11,000 300 Level Atlanta Center
02:51PM 32.8675 -84.1972 160° South 243 280 11,700 1,080 Climbing Atlanta Center
02:52PM 32.8131 -84.1722 159° South 236 272 13,200 1,500 Climbing Atlanta Center
02:53PM 32.7653 -84.1525 161° South 215 247 14,700 1,440 Climbing Atlanta Center
02:54PM 32.7192 -84.1303 158° South 191 220 16,100 1,440 Climbing Atlanta Center
02:55PM 32.6733 -84.1056 156° South 185 213 17,600 1,320 Climbing Atlanta Center
02:56PM 32.6211 -84.0881 164° South 185 213 18,800 1,200 Climbing Atlanta Center
02:57PM 32.5731 -84.0633 157° South 185 213 20,000 1,200 Climbing Atlanta Center
02:58PM 32.5231 -84.0439 162° South 190 219 21,200 1,200 Climbing Atlanta Center
02:59PM 32.4708 -84.0192 158° South 190 219 22,400 1,020 Climbing Atlanta Center
03:00PM 32.4186 -83.9944 158° South 196 226 23,300 900 Climbing Atlanta Center
03:01PM 32.3622 -83.9725 162° South 201 231 24,200 900 Climbing Atlanta Center
03:02PM 32.3081 -83.9456 157° South 214 246 25,100 840 Climbing Atlanta Center
03:03PM 32.2494 -83.9208 160° South 214 246 25,900 720 Climbing Atlanta Center
03:04PM 32.1847 -83.8917 159° South 219 252 26,600 540 Climbing Atlanta Center
03:05PM 32.1264 -83.8647 159° South 224 258 27,000 240 Climbing Atlanta Center
03:06PM 32.0878 -83.8464 158° South 231 266 27,000  Level Jacksonville Center
03:07PM 32.0169 -83.8164 160° South 253 291 27,000  Level Jacksonville Center
03:08PM 31.9442 -83.7836 159° South 270 311 27,000  Level Jacksonville Center
03:09PM 31.8756 -83.7514 158° South 283 326 27,000  Level Jacksonville Center
03:10PM 31.8006 -83.7189 160° South 289 333 27,000  Level Jacksonville Center
03:11PM 31.7256 -83.6839 158° South 289 333 27,000  Level Jacksonville Center
03:12PM 31.6506 -83.6517 160° South 289 333 27,000  Level Jacksonville Center
03:13PM 31.5694 -83.6192 161° South 297 342 27,000  Level Jacksonville Center
03:14PM 31.4944 -83.5894 161° South 297 342 27,000  Level Jacksonville Center
03:15PM 31.4194 -83.5547 158° South 297 342 27,000  Level Jacksonville Center
03:16PM 31.3444 -83.5225 160° South 292 336 27,000  Level Jacksonville Center
03:17PM 31.2672 -83.4906 161° South 292 336 27,000  Level Jacksonville Center
03:18PM 31.1922 -83.4583 160° South 292 336 27,000  Level Jacksonville Center
03:19PM 31.1153 -83.4239 159° South 292 336 27,000  Level Jacksonville Center
03:20PM 31.0381 -83.3919 160° South 292 336 27,000  Level Jacksonville Center
03:21PM 30.9631 -83.3603 160° South 292 336 27,000  Level Jacksonville Center
03:22PM 30.8881 -83.3233 157° South 292 336 27,000  Level Jacksonville Center
03:23PM 30.8108 -83.2917 161° South 292 336 27,000  Level Jacksonville Center
03:24PM 30.7336 -83.2622 162° South 287 330 27,000  Level Jacksonville Center
03:25PM 30.6586 -83.2283 159° South 293 337 27,000  Level Jacksonville Center
03:26PM 30.5794 -83.1992 162° South 293 337 27,000  Level Jacksonville Center
03:27PM 30.5000 -83.1722 164° South 293 337 27,000  Level Jacksonville Center
03:28PM 30.4228 -83.1383 159° South 293 337 27,000  Level Jacksonville Center
03:29PM 30.3456 -83.1092 162° South 293 337 27,000  Level Jacksonville Center
03:30PM 30.2664 -83.0778 161° South 293 337 27,000  Level Jacksonville Center
03:31PM 30.1872 -83.0489 162° South 298 343 27,000  Level Jacksonville Center
03:32PM 30.1078 -83.0175 161° South 298 343 27,000  Level Jacksonville Center
03:33PM 30.0200 -82.9861 163° South 298 343 27,000  Level Jacksonville Center
03:34PM 29.9428 -82.9572 162° South 298 343 27,000  Level Jacksonville Center
03:35PM 29.8656 -82.9261 161° South 298 343 27,000  Level Jacksonville Center
03:36PM 29.7883 -82.8997 163° South 299 344 27,000  Level Jacksonville Center
03:37PM 29.7111 -82.8686 161° South 299 344 27,000  Level Jacksonville Center
03:38PM 29.6319 -82.8375 161° South 299 344 27,000  Level Jacksonville Center
03:39PM 29.5544 -82.8067 161° South 299 344 27,000  Level Jacksonville Center
03:40PM 29.4731 -82.7756 162° South 299 344 27,000  Level Jacksonville Center
03:41PM 29.3958 -82.7472 162° South 304 350 27,000  Level Jacksonville Center
03:42PM 29.3186 -82.7164 161° South 304 350 27,000  Level Jacksonville Center
03:43PM 29.2414 -82.6878 162° South 304 350 27,000  Level Jacksonville Center
03:44PM 29.1639 -82.6547 160° South 299 344 27,000  Level Jacksonville Center
03:45PM 29.0847 -82.6289 164° South 299 344 27,000  Level Jacksonville Center
03:46PM 29.0072 -82.6006 162° South 299 344 27,000  Level Jacksonville Center
03:47PM 28.9300 -82.5700 161° South 299 344 27,000  Level Jacksonville Center
03:48PM 28.8547 -82.5417 162° South 299 344 27,000  Level Jacksonville Center
03:49PM 28.7756 -82.5278 171° South 293 337 27,000  Level Jacksonville Center
03:50PM 28.6961 -82.5117 170° South 293 337 27,000  Level Jacksonville Center
03:51PM 28.6189 -82.4953 169° South 293 337 27,000  Level Jacksonville Center
03:52PM 28.5375 -82.4789 170° South 293 337 27,000  Level Jacksonville Center
03:54PM 28.3797 -82.4458 170° South 296 341 27,000  Level Miami Center
03:55PM 28.3072 -82.4303 169° South 296 341 27,000  Level Miami Center
03:56PM 28.2286 -82.4147 170° South 302 348 27,000  Level Miami Center
03:57PM 28.1458 -82.3964 169° South 290 334 27,000  Level Miami Center
03:58PM 28.0692 -82.3811 170° South 290 334 27,000  Level Miami Center
03:59PM 27.9906 -82.3631 169° South 290 334 27,000  Level Miami Center
04:00PM 27.9167 -82.3336 161° South 290 334 27,000  Level Miami Center
04:01PM 27.8408 -82.3019 160° South 290 334 27,000  Level Miami Center
04:02PM 27.7564 -82.2672 160° South 290 334 27,000  Level Miami Center
04:03PM 27.6806 -82.2356 160° South 290 334 27,000  Level Miami Center
04:04PM 27.6044 -82.2039 160° South 290 334 27,000  Level Miami Center
04:05PM 27.5367 -82.1772 161° South 295 339 27,000  Level Miami Center
04:06PM 27.4525 -82.1383 158° South 295 339 27,000  Level Miami Center
04:07PM 27.3742 -82.1092 162° South 295 339 27,000  Level Miami Center
04:08PM 27.2981 -82.0775 160° South 301 346 27,000  Level Miami Center
04:09PM 27.2303 -82.0489 159° South 301 346 27,000  Level Miami Center
04:10PM 27.1500 -82.0172 161° South 301 346 27,000  Level Miami Center
04:11PM 27.0636 -81.9831 161° South 301 346 27,000  Level Miami Center
04:12PM 26.9958 -81.9544 159° South 301 346 27,000  Level Miami Center
04:13PM 26.9175 -81.9256 162° South 301 346 27,000  Level Miami Center
04:14PM 26.8372 -81.8939 161° South 301 346 27,000  Level Miami Center
04:15PM 26.7611 -81.8606 159° South 301 346 27,000  Level Miami Center
04:16PM 26.6828 -81.8292 160° South 301 346 27,000  Level Miami Center
04:17PM 26.6067 -81.7981 160° South 301 346 27,000  Level Miami Center
04:18PM 26.5283 -81.7647 159° South 301 346 27,000  Level Miami Center
04:19PM 26.4500 -81.7361 162° South 301 346 27,000  Level Miami Center
04:20PM 26.3761 -81.7028 158° South 301 346 27,000  Level Miami Center
04:21PM 26.2978 -81.6717 160° South 301 346 27,000  Level Miami Center
04:22PM 26.2194 -81.6408 161° South 301 346 27,000 -480 Level Miami Center
04:23PM 26.1411 -81.6078 159° South 301 346 26,100 -900 Descending Miami Center
04:24PM 26.0606 -81.5767 161° South 301 346 25,200 -960 Descending Miami Center
04:25PM 25.9781 -81.5481 163° South 301 346 24,200 -1,200 Descending Miami Center
04:26PM 25.9019 -81.5128 157° South 301 346 22,800 -1,440 Descending Miami Center
04:27PM 25.8194 -81.4819 161° South 301 346 21,400 -1,500 Descending Miami Center
04:28PM 25.7389 -81.4511 161° South 301 346 19,900 -1,500 Descending Miami Center
04:29PM 25.6586 -81.4181 160° South 301 346 18,400 -1,500 Descending Miami Center
04:30PM 25.5800 -81.3875 161° South 301 346 17,000 -1,500 Descending Miami Center
04:31PM 25.5036 -81.3592 161° South 301 346 15,500 -1,500 Descending Miami Center
04:32PM 25.4275 -81.3267 159° South 301 346 14,100 -1,320 Descending Miami Center
04:33PM 25.3511 -81.2986 162° South 301 346 12,900 -1,200 Descending Miami Center
04:34PM 25.2767 -81.2706 161° South 295 339 11,700 -1,200 Descending Miami Center
04:35PM 25.2025 -81.2381 158° South 289 333 10,500 -1,200 Descending Miami Center
04:36PM 25.1322 -81.2103 160° South 284 327 9,300 -1,200 Descending Miami Center
04:37PM 25.0600 -81.1825 161° South 279 321 8,100 -1,200 Descending Miami Center
04:38PM 24.9897 -81.1547 160° South 279 321 6,900 -1,200 Descending Miami Center
04:39PM 24.9217 -81.1272 160° South 274 315 5,700 -1,200 Descending Miami Center